Página principal
METAR-TAF:

METAR-TAF

Aeroportos :

Vladivostok, Rússia

Aeroporto Internacional de Vladivostok

latitude: 43-07N, longitude: 131-56E, altura: 184 m

Observação actual do tempo

O boletim foi feito há 40 minutos, às 11:30 UTC
Vento 8 kt de nor-noroeste
Temperatura -14°C
Humidade 39%
Pressão 1022 hPa
Visibilidade 10 km ou mais

METAR: UHWW 121130Z 33004MPS 9999 NSC M14/M25 Q1022 R25L/0///70 NOSIG RMK QFE765

Hora: 22:10 (12:10 UTC)

Previsão

O boletim foi feito há 1 hora e 10 minutos, às 11:00 UTC
Previsão válida de 12 às 12 UTC a 13 às 12 UTC
Vento 6 kt de norte
Visibilidade 10 km ou mais
Nuvens dispersasa uma altura de 3000 ft
Temporariamente
de 12 às 12 UTC a 13 às 12 UTC
Vento 17 kt de norte com rajadas de 27 kt
Visibilidade: 4000 m
Nuvens fragmentadasa uma altura de 1500 ft, Cumulonimbus.
aguaceiros fracos de neve

TAF: UHWW 121100Z 1212/1312 36003MPS 9999 SCT030 TEMPO 1212/1312 35009G14MPS 4000 -SHSN BKN015CB

Observações e previsões do tempo de mais de 4000 aeroportos (mensagens METAR e TAF).

As estações disponíveis são os pontos amarelos e vermelhos sobre o mapa.

Mova o rato sobre o mapa para ver o nome da estação.

Depois clique no ponto para visualizar as observações e previsões meteorológicas.

Para alterar o mapa : clique nos botões verdes com uma cruz preta para aumentar o zoom; no botão verde com uma pitada de zoom; ou nas setas verdes para mapas adjacentes.


METAR-TAF: